sensor_id;sensor_type;location;lat;lon;timestamp;pressure;altitude;pressure_sealevel;temperature;humidity
54407;BME280;40313;50.308;30.374;2023-03-20T00:00:13;100087.25;;;-2.61;100.00
54407;BME280;40313;50.308;30.374;2023-03-20T00:02:41;100084.72;;;-2.58;100.00
54407;BME280;40313;50.308;30.374;2023-03-20T00:05:25;100079.63;;;-2.55;100.00
54407;BME280;40313;50.308;30.374;2023-03-20T00:07:55;100081.31;;;-2.57;100.00
54407;BME280;40313;50.308;30.374;2023-03-20T00:10:23;100077.88;;;-2.61;100.00
54407;BME280;40313;50.308;30.374;2023-03-20T00:12:51;100077.03;;;-2.66;100.00
54407;BME280;40313;50.308;30.374;2023-03-20T00:15:25;100066.81;;;-2.66;100.00
54407;BME280;40313;50.308;30.374;2023-03-20T00:17:52;100065.94;;;-2.66;100.00
54407;BME280;40313;50.308;30.374;2023-03-20T00:20:19;100063.38;;;-2.65;100.00
54407;BME280;40313;50.308;30.374;2023-03-20T00:22:45;100060.81;;;-2.69;100.00
54407;BME280;40313;50.308;30.374;2023-03-20T00:25:12;100055.69;;;-2.74;100.00
54407;BME280;40313;50.308;30.374;2023-03-20T00:27:40;100048.03;;;-2.77;100.00
54407;BME280;40313;50.308;30.374;2023-03-20T00:30:12;100048.00;;;-2.80;100.00
54407;BME280;40313;50.308;30.374;2023-03-20T00:32:41;100046.25;;;-2.87;100.00
54407;BME280;40313;50.308;30.374;2023-03-20T00:35:13;100047.06;;;-2.95;100.00
54407;BME280;40313;50.308;30.374;2023-03-20T00:37:42;100048.78;;;-3.00;100.00
54407;BME280;40313;50.308;30.374;2023-03-20T00:40:08;100034.28;;;-3.01;100.00
54407;BME280;40313;50.308;30.374;2023-03-20T00:42:35;100038.56;;;-3.01;100.00
54407;BME280;40313;50.308;30.374;2023-03-20T00:45:03;100037.69;;;-2.99;100.00
54407;BME280;40313;50.308;30.374;2023-03-20T00:47:30;100032.59;;;-2.99;100.00
54407;BME280;40313;50.308;30.374;2023-03-20T00:50:01;100032.59;;;-2.99;100.00
54407;BME280;40313;50.308;30.374;2023-03-20T00:52:28;100035.13;;;-3.00;100.00
54407;BME280;40313;50.308;30.374;2023-03-20T00:54:54;100030.00;;;-3.03;100.00
54407;BME280;40313;50.308;30.374;2023-03-20T00:57:23;100028.28;;;-3.06;100.00
54407;BME280;40313;50.308;30.374;2023-03-20T00:59:52;100029.16;;;-3.07;100.00
54407;BME280;40313;50.308;30.374;2023-03-20T01:02:22;100030.84;;;-3.06;100.00
54407;BME280;40313;50.308;30.374;2023-03-20T01:04:49;100021.50;;;-3.05;100.00
54407;BME280;40313;50.308;30.374;2023-03-20T01:07:16;100031.72;;;-3.02;100.00
54407;BME280;40313;50.308;30.374;2023-03-20T01:09:42;100025.78;;;-3.03;100.00
54407;BME280;40313;50.308;30.374;2023-03-20T01:12:09;100023.19;;;-3.06;100.00
54407;BME280;40313;50.308;30.374;2023-03-20T01:14:36;100031.66;;;-3.12;100.00
54407;BME280;40313;50.308;30.374;2023-03-20T01:17:02;100029.09;;;-3.13;100.00
54407;BME280;40313;50.308;30.374;2023-03-20T01:19:30;100028.28;;;-3.10;100.00
54407;BME280;40313;50.308;30.374;2023-03-20T01:21:56;100020.63;;;-3.06;100.00
54407;BME280;40313;50.308;30.374;2023-03-20T01:24:23;100027.47;;;-3.00;100.00
54407;BME280;40313;50.308;30.374;2023-03-20T01:26:49;100021.53;;;-3.01;100.00
54407;BME280;40313;50.308;30.374;2023-03-20T01:29:17;100020.72;;;-2.93;100.00
54407;BME280;40313;50.308;30.374;2023-03-20T01:31:44;100013.94;;;-2.91;100.00
54407;BME280;40313;50.308;30.374;2023-03-20T01:34:11;100003.72;;;-2.91;100.00
54407;BME280;40313;50.308;30.374;2023-03-20T01:36:38;100015.59;;;-2.93;100.00
54407;BME280;40313;50.308;30.374;2023-03-20T01:39:05;100014.75;;;-2.94;100.00
54407;BME280;40313;50.308;30.374;2023-03-20T01:41:31;100013.06;;;-2.95;100.00
54407;BME280;40313;50.308;30.374;2023-03-20T01:43:58;100014.75;;;-2.97;100.00
54407;BME280;40313;50.308;30.374;2023-03-20T01:46:27;100019.81;;;-3.02;100.00
54407;BME280;40313;50.308;30.374;2023-03-20T01:48:57;100012.16;;;-3.05;100.00
54407;BME280;40313;50.308;30.374;2023-03-20T01:51:25;100024.06;;;-3.07;100.00
54407;BME280;40313;50.308;30.374;2023-03-20T01:53:55;100022.34;;;-3.08;100.00
54407;BME280;40313;50.308;30.374;2023-03-20T01:56:23;100024.03;;;-3.10;100.00
54407;BME280;40313;50.308;30.374;2023-03-20T01:58:53;100023.16;;;-3.10;100.00
54407;BME280;40313;50.308;30.374;2023-03-20T02:01:23;100034.25;;;-3.10;100.00
54407;BME280;40313;50.308;30.374;2023-03-20T02:03:49;100031.69;;;-3.10;100.00
54407;BME280;40313;50.308;30.374;2023-03-20T02:06:16;100034.25;;;-3.10;100.00
54407;BME280;40313;50.308;30.374;2023-03-20T02:08:44;100031.75;;;-2.96;100.00
54407;BME280;40313;50.308;30.374;2023-03-20T02:11:13;100025.81;;;-2.90;100.00
54407;BME280;40313;50.308;30.374;2023-03-20T02:13:40;100030.06;;;-2.96;100.00
54407;BME280;40313;50.308;30.374;2023-03-20T02:16:09;100029.19;;;-2.98;100.00
54407;BME280;40313;50.308;30.374;2023-03-20T02:18:35;100027.47;;;-3.02;100.00
54407;BME280;40313;50.308;30.374;2023-03-20T02:21:12;100026.63;;;-3.05;100.00
54407;BME280;40313;50.308;30.374;2023-03-20T02:23:59;100027.44;;;-3.11;100.00
54407;BME280;40313;50.308;30.374;2023-03-20T02:26:39;100016.31;;;-3.21;100.00
54407;BME280;40313;50.308;30.374;2023-03-20T02:34:45;100022.13;;;-3.42;100.00
54407;BME280;40313;50.308;30.374;2023-03-20T02:37:30;100016.97;;;-3.51;100.00
54407;BME280;40313;50.308;30.374;2023-03-20T02:40:03;100013.50;;;-3.59;100.00
54407;BME280;40313;50.308;30.374;2023-03-20T02:42:35;100012.63;;;-3.63;100.00
54407;BME280;40313;50.308;30.374;2023-03-20T02:45:13;100002.41;;;-3.66;100.00
54407;BME280;40313;50.308;30.374;2023-03-20T02:47:46;100000.66;;;-3.70;100.00
54407;BME280;40313;50.308;30.374;2023-03-20T02:50:15;99992.16;;;-3.75;100.00
54407;BME280;40313;50.308;30.374;2023-03-20T02:52:45;99985.31;;;-3.79;100.00
54407;BME280;40313;50.308;30.374;2023-03-20T02:55:16;99984.41;;;-3.86;100.00
54407;BME280;40313;50.308;30.374;2023-03-20T02:57:50;99987.78;;;-3.90;100.00
54407;BME280;40313;50.308;30.374;2023-03-20T03:00:25;99978.44;;;-3.91;100.00
54407;BME280;40313;50.308;30.374;2023-03-20T03:02:57;99982.66;;;-3.93;100.00
54407;BME280;40313;50.308;30.374;2023-03-20T03:05:32;99984.34;;;-3.97;100.00
54407;BME280;40313;50.308;30.374;2023-03-20T03:08:04;99979.19;;;-4.02;100.00
54407;BME280;40313;50.308;30.374;2023-03-20T03:10:35;99976.69;;;-3.97;100.00
54407;BME280;40313;50.308;30.374;2023-03-20T03:13:04;99981.81;;;-3.94;100.00
54407;BME280;40313;50.308;30.374;2023-03-20T03:15:35;99981.81;;;-3.94;100.00
54407;BME280;40313;50.308;30.374;2023-03-20T03:18:05;99983.53;;;-3.93;100.00
54407;BME280;40313;50.308;30.374;2023-03-20T03:20:35;99984.38;;;-3.92;100.00
54407;BME280;40313;50.308;30.374;2023-03-20T03:23:06;99978.38;;;-3.96;100.00
54407;BME280;40313;50.308;30.374;2023-03-20T03:25:35;99974.13;;;-4.00;100.00
54407;BME280;40313;50.308;30.374;2023-03-20T03:28:06;99972.38;;;-4.06;100.00
54407;BME280;40313;50.308;30.374;2023-03-20T03:30:36;99976.59;;;-4.06;100.00
54407;BME280;40313;50.308;30.374;2023-03-20T03:33:12;99974.03;;;-4.09;100.00
54407;BME280;40313;50.308;30.374;2023-03-20T03:35:41;99968.91;;;-4.14;100.00
54407;BME280;40313;50.308;30.374;2023-03-20T03:38:24;99965.44;;;-4.19;100.00
54407;BME280;40313;50.308;30.374;2023-03-20T03:41:01;99965.44;;;-4.22;100.00
54407;BME280;40313;50.308;30.374;2023-03-20T03:43:33;99962.84;;;-4.27;100.00
54407;BME280;40313;50.308;30.374;2023-03-20T03:46:05;99966.22;;;-4.28;100.00
54407;BME280;40313;50.308;30.374;2023-03-20T03:48:37;99962.84;;;-4.28;100.00
54407;BME280;40313;50.308;30.374;2023-03-20T03:51:07;99968.75;;;-4.29;100.00
54407;BME280;40313;50.308;30.374;2023-03-20T03:53:40;99964.50;;;-4.30;100.00
54407;BME280;40313;50.308;30.374;2023-03-20T03:56:10;99958.56;;;-4.32;100.00
54407;BME280;40313;50.308;30.374;2023-03-20T03:58:40;99962.78;;;-4.33;100.00
54407;BME280;40313;50.308;30.374;2023-03-20T04:01:09;99964.50;;;-4.30;100.00
54407;BME280;40313;50.308;30.374;2023-03-20T04:03:39;99962.06;;;-4.20;100.00
54407;BME280;40313;50.308;30.374;2023-03-20T04:06:09;99958.75;;;-4.11;100.00
54407;BME280;40313;50.308;30.374;2023-03-20T04:08:39;99963.06;;;-4.02;100.00
54407;BME280;40313;50.308;30.374;2023-03-20T04:11:06;99959.69;;;-3.98;100.00
54407;BME280;40313;50.308;30.374;2023-03-20T04:13:34;99957.16;;;-3.96;100.00
54407;BME280;40313;50.308;30.374;2023-03-20T04:16:00;99961.41;;;-3.97;100.00
54407;BME280;40313;50.308;30.374;2023-03-20T04:18:27;99960.53;;;-3.97;100.00
54407;BME280;40313;50.308;30.374;2023-03-20T04:20:53;99969.06;;;-3.97;100.00
54407;BME280;40313;50.308;30.374;2023-03-20T04:23:20;99967.38;;;-3.93;100.00
54407;BME280;40313;50.308;30.374;2023-03-20T04:25:48;99975.91;;;-3.90;100.00
54407;BME280;40313;50.308;30.374;2023-03-20T04:28:15;99967.44;;;-3.87;100.00
54407;BME280;40313;50.308;30.374;2023-03-20T04:30:41;99970.84;;;-3.82;100.00
54407;BME280;40313;50.308;30.374;2023-03-20T04:33:12;99974.31;;;-3.75;100.00
54407;BME280;40313;50.308;30.374;2023-03-20T04:35:38;99974.34;;;-3.69;100.00
54407;BME280;40313;50.308;30.374;2023-03-20T04:38:05;99965.06;;;-3.62;100.00
54407;BME280;40313;50.308;30.374;2023-03-20T04:40:33;99961.72;;;-3.52;100.00
54407;BME280;40313;50.308;30.374;2023-03-20T04:43:01;99968.56;;;-3.39;100.00
54407;BME280;40313;50.308;30.374;2023-03-20T04:45:27;99972.09;;;-3.21;100.00
54407;BME280;40313;50.308;30.374;2023-03-20T04:47:54;99972.19;;;-3.03;100.00
54407;BME280;40313;50.308;30.374;2023-03-20T04:50:21;99967.16;;;-2.80;100.00
54407;BME280;40313;50.308;30.374;2023-03-20T04:52:47;99969.78;;;-2.55;100.00
54407;BME280;40313;50.308;30.374;2023-03-20T04:55:14;99969.84;;;-2.29;100.00
54407;BME280;40313;50.308;30.374;2023-03-20T04:57:41;99968.16;;;-2.05;100.00
54407;BME280;40313;50.308;30.374;2023-03-20T05:00:10;99970.72;;;-1.89;100.00
54407;BME280;40313;50.308;30.374;2023-03-20T05:02:36;99969.84;;;-1.73;100.00
54407;BME280;40313;50.308;30.374;2023-03-20T05:05:03;99961.31;;;-1.61;100.00
54407;BME280;40313;50.308;30.374;2023-03-20T05:07:30;99968.09;;;-1.45;100.00
54407;BME280;40313;50.308;30.374;2023-03-20T05:09:57;99961.22;;;-1.29;100.00
54407;BME280;40313;50.308;30.374;2023-03-20T05:12:23;99962.91;;;-1.11;100.00
54407;BME280;40313;50.308;30.374;2023-03-20T05:14:51;99967.03;;;-0.80;100.00
54407;BME280;40313;50.308;30.374;2023-03-20T05:17:20;99960.88;;;-0.44;100.00
54407;BME280;40313;50.308;30.374;2023-03-20T05:19:47;99952.00;;;0.01;100.00
54407;BME280;40313;50.308;30.374;2023-03-20T05:22:14;99961.78;;;0.55;100.00
54407;BME280;40313;50.308;30.374;2023-03-20T05:24:40;99954.25;;;1.14;100.00
54407;BME280;40313;50.308;30.374;2023-03-20T05:27:07;99951.00;;;1.65;100.00
54407;BME280;40313;50.308;30.374;2023-03-20T05:29:33;99950.09;;;2.23;100.00
54407;BME280;40313;50.308;30.374;2023-03-20T05:32:00;99947.75;;;2.58;100.00
54407;BME280;40313;50.308;30.374;2023-03-20T05:34:28;99946.38;;;2.85;100.00
54407;BME280;40313;50.308;30.374;2023-03-20T05:36:56;99947.13;;;3.33;100.00
54407;BME280;40313;50.308;30.374;2023-03-20T05:39:22;99944.66;;;3.66;100.00
54407;BME280;40313;50.308;30.374;2023-03-20T05:41:49;99941.13;;;3.70;100.00
54407;BME280;40313;50.308;30.374;2023-03-20T05:44:16;99934.56;;;3.56;100.00
54407;BME280;40313;50.308;30.374;2023-03-20T05:46:42;99940.84;;;3.46;100.00
54407;BME280;40313;50.308;30.374;2023-03-20T05:49:09;99941.69;;;3.45;100.00
54407;BME280;40313;50.308;30.374;2023-03-20T05:51:37;99952.22;;;3.75;100.00
54407;BME280;40313;50.308;30.374;2023-03-20T05:54:04;99954.03;;;4.06;100.00
54407;BME280;40313;50.308;30.374;2023-03-20T05:56:31;99949.97;;;4.31;100.00
54407;BME280;40313;50.308;30.374;2023-03-20T05:58:57;99946.72;;;4.58;100.00
54407;BME280;40313;50.308;30.374;2023-03-20T06:01:24;99951.56;;;4.70;100.00
54407;BME280;40313;50.308;30.374;2023-03-20T06:03:50;99951.00;;;4.90;100.00
54407;BME280;40313;50.308;30.374;2023-03-20T06:06:17;99949.75;;;5.04;100.00
54407;BME280;40313;50.308;30.374;2023-03-20T06:08:45;99954.50;;;5.19;100.00
54407;BME280;40313;50.308;30.374;2023-03-20T06:11:11;99954.31;;;5.25;100.00
54407;BME280;40313;50.308;30.374;2023-03-20T06:13:38;99956.13;;;5.23;100.00
54407;BME280;40313;50.308;30.374;2023-03-20T06:16:05;99957.19;;;5.16;100.00
54407;BME280;40313;50.308;30.374;2023-03-20T06:18:32;99948.94;;;5.01;100.00
54407;BME280;40313;50.308;30.374;2023-03-20T06:20:58;99950.78;;;4.98;100.00
54407;BME280;40313;50.308;30.374;2023-03-20T06:23:26;99956.44;;;5.41;100.00
54407;BME280;40313;50.308;30.374;2023-03-20T06:25:54;99958.94;;;6.52;100.00
54407;BME280;40313;50.308;30.374;2023-03-20T06:28:21;99951.22;;;7.69;100.00
54407;BME280;40313;50.308;30.374;2023-03-20T06:30:50;99940.22;;;8.69;100.00
54407;BME280;40313;50.308;30.374;2023-03-20T06:33:17;99942.03;;;9.25;100.00
54407;BME280;40313;50.308;30.374;2023-03-20T06:35:44;99936.91;;;9.79;100.00
54407;BME280;40313;50.308;30.374;2023-03-20T06:38:10;99932.19;;;9.32;100.00
54407;BME280;40313;50.308;30.374;2023-03-20T06:40:37;99937.75;;;9.05;100.00
54407;BME280;40313;50.308;30.374;2023-03-20T06:43:05;99943.16;;;8.40;100.00
54407;BME280;40313;50.308;30.374;2023-03-20T06:45:32;99941.81;;;7.87;100.00
54407;BME280;40313;50.308;30.374;2023-03-20T06:47:58;99947.25;;;7.37;100.00
54407;BME280;40313;50.308;30.374;2023-03-20T06:50:25;99952.09;;;7.00;100.00
54407;BME280;40313;50.308;30.374;2023-03-20T06:52:51;99949.34;;;6.80;100.00
54407;BME280;40313;50.308;30.374;2023-03-20T06:55:17;99944.00;;;6.61;100.00
54407;BME280;40313;50.308;30.374;2023-03-20T06:57:44;99941.66;;;6.53;100.00
54407;BME280;40313;50.308;30.374;2023-03-20T07:00:12;99947.81;;;6.50;100.00
54407;BME280;40313;50.308;30.374;2023-03-20T07:02:38;99932.34;;;6.22;100.00
54407;BME280;40313;50.308;30.374;2023-03-20T07:05:05;99931.97;;;6.33;100.00
54407;BME280;40313;50.308;30.374;2023-03-20T07:07:32;99931.66;;;6.42;100.00
54407;BME280;40313;50.308;30.374;2023-03-20T07:09:58;99927.78;;;6.54;100.00
54407;BME280;40313;50.308;30.374;2023-03-20T07:12:24;99920.72;;;6.59;100.00
54407;BME280;40313;50.308;30.374;2023-03-20T07:14:52;99920.25;;;6.48;100.00
54407;BME280;40313;50.308;30.374;2023-03-20T07:17:20;99926.09;;;6.53;100.00
54407;BME280;40313;50.308;30.374;2023-03-20T07:19:47;99920.25;;;6.48;100.00
54407;BME280;40313;50.308;30.374;2023-03-20T07:22:15;99919.00;;;6.58;100.00
54407;BME280;40313;50.308;30.374;2023-03-20T07:24:44;99920.59;;;6.62;100.00
54407;BME280;40313;50.308;30.374;2023-03-20T07:27:11;99915.66;;;6.56;100.00
54407;BME280;40313;50.308;30.374;2023-03-20T07:29:37;99924.72;;;6.43;100.00
54407;BME280;40313;50.308;30.374;2023-03-20T07:32:03;99924.94;;;6.36;100.00
54407;BME280;40313;50.308;30.374;2023-03-20T07:34:31;99921.41;;;6.39;100.00
54407;BME280;40313;50.308;30.374;2023-03-20T07:36:58;99920.50;;;6.40;100.00
54407;BME280;40313;50.308;30.374;2023-03-20T07:39:24;99928.03;;;6.48;100.00
54407;BME280;40313;50.308;30.374;2023-03-20T07:41:51;99919.28;;;6.50;100.00
54407;BME280;40313;50.308;30.374;2023-03-20T07:44:17;99907.69;;;6.61;100.00
54407;BME280;40313;50.308;30.374;2023-03-20T07:46:44;99913.59;;;6.64;100.00
54407;BME280;40313;50.308;30.374;2023-03-20T07:49:12;99909.81;;;6.74;100.00
54407;BME280;40313;50.308;30.374;2023-03-20T07:51:39;99908.63;;;6.83;100.00
54407;BME280;40313;50.308;30.374;2023-03-20T07:54:06;99901.22;;;6.96;100.00
54407;BME280;40313;50.308;30.374;2023-03-20T07:56:32;99900.94;;;7.04;100.00
54407;BME280;40313;50.308;30.374;2023-03-20T07:58:58;99898.06;;;7.12;100.00
54407;BME280;40313;50.308;30.374;2023-03-20T08:01:25;99890.03;;;7.18;100.00
54407;BME280;40313;50.308;30.374;2023-03-20T08:03:51;99884.53;;;7.25;100.00
54407;BME280;40313;50.308;30.374;2023-03-20T08:06:17;99891.25;;;7.31;100.00
54407;BME280;40313;50.308;30.374;2023-03-20T08:08:45;99885.28;;;7.29;100.00
54407;BME280;40313;50.308;30.374;2023-03-20T08:11:13;99889.41;;;7.35;100.00
54407;BME280;40313;50.308;30.374;2023-03-20T08:13:40;99890.66;;;7.47;100.00
54407;BME280;40313;50.308;30.374;2023-03-20T08:16:06;99891.19;;;7.55;100.00
54407;BME280;40313;50.308;30.374;2023-03-20T08:18:33;99896.41;;;7.55;100.00
54407;BME280;40313;50.308;30.374;2023-03-20T08:20:59;99886.56;;;7.63;100.00
54407;BME280;40313;50.308;30.374;2023-03-20T08:23:26;99895.78;;;7.70;100.00
54407;BME280;40313;50.308;30.374;2023-03-20T08:25:53;99898.31;;;7.72;100.00
54407;BME280;40313;50.308;30.374;2023-03-20T08:28:20;99899.03;;;7.75;100.00
54407;BME280;40313;50.308;30.374;2023-03-20T08:30:47;99898.81;;;7.82;100.00
54407;BME280;40313;50.308;30.374;2023-03-20T08:33:13;99895.88;;;7.89;100.00
54407;BME280;40313;50.308;30.374;2023-03-20T08:35:40;99889.59;;;7.95;100.00
54407;BME280;40313;50.308;30.374;2023-03-20T08:38:08;99891.91;;;8.01;100.00
54407;BME280;40313;50.308;30.374;2023-03-20T08:40:36;99890.75;;;8.08;100.00
54407;BME280;40313;50.308;30.374;2023-03-20T08:43:03;99892.19;;;8.16;100.00
54407;BME280;40313;50.308;30.374;2023-03-20T08:45:30;99881.63;;;8.20;100.00
54407;BME280;40313;50.308;30.374;2023-03-20T08:47:56;99883.09;;;8.26;100.00
54407;BME280;40313;50.308;30.374;2023-03-20T08:50:22;99884.69;;;8.28;100.00
54407;BME280;40313;50.308;30.374;2023-03-20T08:52:49;99876.28;;;8.23;100.00
54407;BME280;40313;50.308;30.374;2023-03-20T08:55:15;99878.00;;;8.23;100.00
54407;BME280;40313;50.308;30.374;2023-03-20T08:57:42;99870.34;;;8.20;100.00
54407;BME280;40313;50.308;30.374;2023-03-20T09:00:11;99872.81;;;8.23;100.00
54407;BME280;40313;50.308;30.374;2023-03-20T09:02:38;99861.38;;;8.27;100.00
54407;BME280;40313;50.308;30.374;2023-03-20T09:05:05;99874.25;;;8.30;100.00
54407;BME280;40313;50.308;30.374;2023-03-20T09:07:31;99866.50;;;8.28;100.00
54407;BME280;40313;50.308;30.374;2023-03-20T09:09:58;99857.16;;;8.24;100.00
54407;BME280;40313;50.308;30.374;2023-03-20T09:12:24;99858.78;;;8.27;100.00
54407;BME280;40313;50.308;30.374;2023-03-20T09:14:51;99860.63;;;8.25;100.00
54407;BME280;40313;50.308;30.374;2023-03-20T09:17:18;99858.78;;;8.27;100.00
54407;BME280;40313;50.308;30.374;2023-03-20T09:19:45;99857.13;;;8.26;100.00
54407;BME280;40313;50.308;30.374;2023-03-20T09:22:11;99852.75;;;8.26;100.00
54407;BME280;40313;50.308;30.374;2023-03-20T09:24:38;99852.97;;;8.22;100.00
54407;BME280;40313;50.308;30.374;2023-03-20T09:27:04;99848.78;;;8.18;100.00
54407;BME280;40313;50.308;30.374;2023-03-20T09:29:31;99854.69;;;8.21;100.00
54407;BME280;40313;50.308;30.374;2023-03-20T09:31:57;99840.66;;;8.25;100.00
54407;BME280;40313;50.308;30.374;2023-03-20T09:34:25;99851.06;;;8.25;100.00
54407;BME280;40313;50.308;30.374;2023-03-20T09:36:51;99838.97;;;8.24;100.00
54407;BME280;40313;50.308;30.374;2023-03-20T09:39:18;99845.03;;;8.25;100.00
54407;BME280;40313;50.308;30.374;2023-03-20T09:41:45;99838.78;;;8.29;100.00
54407;BME280;40313;50.308;30.374;2023-03-20T09:44:14;99832.41;;;8.36;100.00
54407;BME280;40313;50.308;30.374;2023-03-20T09:46:50;99835.56;;;8.43;100.00
54407;BME280;40313;50.308;30.374;2023-03-20T09:49:26;99837.00;;;8.50;100.00
54407;BME280;40313;50.308;30.374;2023-03-20T09:51:55;99829.19;;;8.50;100.00
54407;BME280;40313;50.308;30.374;2023-03-20T09:54:23;99825.63;;;8.53;100.00
54407;BME280;40313;50.308;30.374;2023-03-20T09:56:52;99823.81;;;8.55;100.00
54407;BME280;40313;50.308;30.374;2023-03-20T09:59:19;99823.81;;;8.55;100.00
54407;BME280;40313;50.308;30.374;2023-03-20T10:01:47;99818.53;;;8.56;100.00
54407;BME280;40313;50.308;30.374;2023-03-20T10:04:15;99815.81;;;8.59;100.00
54407;BME280;40313;50.308;30.374;2023-03-20T10:06:43;99817.22;;;8.67;100.00
54407;BME280;40313;50.308;30.374;2023-03-20T10:09:11;99809.97;;;8.73;100.00
54407;BME280;40313;50.308;30.374;2023-03-20T10:11:49;99811.72;;;8.73;100.00
54407;BME280;40313;50.308;30.374;2023-03-20T10:14:21;99804.97;;;8.69;100.00
54407;BME280;40313;50.308;30.374;2023-03-20T10:16:53;99799.06;;;8.65;100.00
54407;BME280;40313;50.308;30.374;2023-03-20T10:19:26;99794.03;;;8.62;100.00
54407;BME280;40313;50.308;30.374;2023-03-20T10:21:56;99785.44;;;8.60;100.00
54407;BME280;40313;50.308;30.374;2023-03-20T10:24:25;99788.88;;;8.60;100.00
54407;BME280;40313;50.308;30.374;2023-03-20T10:26:54;99782.75;;;8.61;100.00
54407;BME280;40313;50.308;30.374;2023-03-20T10:29:25;99789.59;;;8.64;100.00
54407;BME280;40313;50.308;30.374;2023-03-20T10:31:56;99782.69;;;8.63;100.00
54407;BME280;40313;50.308;30.374;2023-03-20T10:34:34;99781.69;;;8.65;100.00
54407;BME280;40313;50.308;30.374;2023-03-20T10:37:14;99788.47;;;8.70;100.00
54407;BME280;40313;50.308;30.374;2023-03-20T10:39:48;99781.84;;;8.81;100.00
54407;BME280;40313;50.308;30.374;2023-03-20T10:42:18;99777.34;;;8.85;100.00
54407;BME280;40313;50.308;30.374;2023-03-20T10:44:48;99777.19;;;8.88;100.00
54407;BME280;40313;50.308;30.374;2023-03-20T10:47:15;99770.09;;;8.92;100.00
54407;BME280;40313;50.308;30.374;2023-03-20T10:49:44;99763.84;;;8.96;100.00
54407;BME280;40313;50.308;30.374;2023-03-20T10:52:15;99764.38;;;9.03;100.00
54407;BME280;40313;50.308;30.374;2023-03-20T10:54:42;99766.91;;;9.04;100.00
54407;BME280;40313;50.308;30.374;2023-03-20T10:57:12;99761.75;;;9.03;100.00
54407;BME280;40313;50.308;30.374;2023-03-20T10:59:42;99765.22;;;9.03;100.00
54407;BME280;40313;50.308;30.374;2023-03-20T11:02:10;99751.28;;;9.04;100.00
54407;BME280;40313;50.308;30.374;2023-03-20T11:04:36;99752.22;;;9.03;100.00
54407;BME280;40313;50.308;30.374;2023-03-20T11:07:05;99750.28;;;9.07;100.00
54407;BME280;40313;50.308;30.374;2023-03-20T11:09:36;99748.47;;;9.09;100.00
54407;BME280;40313;50.308;30.374;2023-03-20T11:12:03;99737.06;;;9.11;100.00
54407;BME280;40313;50.308;30.374;2023-03-20T11:14:31;99734.44;;;9.11;100.00
54407;BME280;40313;50.308;30.374;2023-03-20T11:16:59;99731.84;;;9.11;100.00
54407;BME280;40313;50.308;30.374;2023-03-20T11:19:26;99733.53;;;9.12;100.00
54407;BME280;40313;50.308;30.374;2023-03-20T11:21:53;99726.94;;;9.05;100.00
54407;BME280;40313;50.308;30.374;2023-03-20T11:24:25;99723.94;;;8.95;100.00
54407;BME280;40313;50.308;30.374;2023-03-20T11:26:53;99722.31;;;8.93;100.00
54407;BME280;40313;50.308;30.374;2023-03-20T11:29:29;99714.59;;;8.91;100.00
54407;BME280;40313;50.308;30.374;2023-03-20T11:32:02;99718.91;;;8.92;100.00
54407;BME280;40313;50.308;30.374;2023-03-20T11:34:35;99709.81;;;9.01;100.00
54407;BME280;40313;50.308;30.374;2023-03-20T11:37:05;99716.31;;;9.10;100.00
54407;BME280;40313;50.308;30.374;2023-03-20T11:39:32;99725.34;;;9.20;100.00
54407;BME280;40313;50.308;30.374;2023-03-20T11:42:04;99717.25;;;9.26;100.00
54407;BME280;40313;50.308;30.374;2023-03-20T11:44:46;99712.50;;;9.34;100.00
54407;BME280;40313;50.308;30.374;2023-03-20T11:47:22;99705.53;;;9.52;100.00
54407;BME280;40313;50.308;30.374;2023-03-20T11:49:53;99711.31;;;9.75;100.00
54407;BME280;40313;50.308;30.374;2023-03-20T11:52:20;99712.78;;;9.97;100.00
54407;BME280;40313;50.308;30.374;2023-03-20T11:54:48;99700.47;;;10.16;100.00
54407;BME280;40313;50.308;30.374;2023-03-20T11:57:27;99694.66;;;10.27;100.00
54407;BME280;40313;50.308;30.374;2023-03-20T11:59:54;99697.75;;;10.35;100.00
54407;BME280;40313;50.308;30.374;2023-03-20T12:02:21;99690.59;;;10.39;100.00
54407;BME280;40313;50.308;30.374;2023-03-20T12:04:48;99692.13;;;10.43;100.00
54407;BME280;40313;50.308;30.374;2023-03-20T12:07:15;99683.84;;;10.51;100.00
54407;BME280;40313;50.308;30.374;2023-03-20T12:09:45;99674.84;;;10.57;100.00
54407;BME280;40313;50.308;30.374;2023-03-20T12:12:14;99679.25;;;10.56;100.00
54407;BME280;40313;50.308;30.374;2023-03-20T12:14:46;99677.38;;;10.58;100.00
54407;BME280;40313;50.308;30.374;2023-03-20T12:20:05;99677.28;;;10.60;100.00
54407;BME280;40313;50.308;30.374;2023-03-20T12:22:33;99678.97;;;10.61;100.00
54407;BME280;40313;50.308;30.374;2023-03-20T12:25:03;99678.13;;;10.60;100.00
54407;BME280;40313;50.308;30.374;2023-03-20T12:27:34;99673.06;;;10.57;100.00
54407;BME280;40313;50.308;30.374;2023-03-20T12:30:04;99675.22;;;10.50;100.00
54407;BME280;40313;50.308;30.374;2023-03-20T12:32:36;99669.91;;;10.36;100.00
54407;BME280;40313;50.308;30.374;2023-03-20T12:35:09;99670.63;;;10.22;100.00
54407;BME280;40313;50.308;30.374;2023-03-20T12:37:36;99670.88;;;10.17;100.00
54407;BME280;40313;50.308;30.374;2023-03-20T12:40:03;99662.28;;;10.15;100.00
54407;BME280;40313;50.308;30.374;2023-03-20T12:42:34;99660.28;;;10.20;100.00
54407;BME280;40313;50.308;30.374;2023-03-20T12:45:07;99656.25;;;10.31;100.00
54407;BME280;40313;50.308;30.374;2023-03-20T12:47:42;99652.31;;;10.40;100.00
54407;BME280;40313;50.308;30.374;2023-03-20T12:50:14;99652.22;;;10.41;100.00
54407;BME280;40313;50.308;30.374;2023-03-20T12:52:43;99647.38;;;10.35;100.00
54407;BME280;40313;50.308;30.374;2023-03-20T12:55:18;99644.13;;;10.30;100.00
54407;BME280;40313;50.308;30.374;2023-03-20T12:57:48;99644.66;;;10.20;100.00